Ocean Fresh — LAEZ7 — position and weather

sailwx.info

Track history (hours):
 
Tides and Currents Weather Stations Pressure Air Temp Water Temp Dewpoint Dewpoint Depression Visibility Wind Speed Wind Dir Waves Ship Positions

Ocean Fresh

Last reported at 2017-Feb-18 01:27 UTC. Time now 2017-Feb-24 21:49 UTC.
Position N 27°39' W 015°19'.

; draft 7.5 m.

Type: Other ship. MMSI: 259758000.

Date/timePositionNaut miles runAvg speedWind from/ knotsBaromVisibWave heightAir tempDewpointWater temp
2017-Feb-18 01:27N 27°39' W 015°19'910.0
2017-Feb-18 00:33N 27°47' W 015°17'10 9.5
2017-Feb-17 23:33N 27°57' W 015°17'9 9.4
2017-Feb-17 22:33N 28°05' W 015°22'4 4.4
2017-Feb-17 21:34N 28°09' W 015°25'0 0.0
2017-Feb-17 20:06N 28°09' W 015°25'0 0.0
2017-Feb-17 19:27N 28°09' W 015°25'0 0.0
2017-Feb-17 18:27N 28°09' W 015°25'0 0.0
2017-Feb-17 17:27N 28°09' W 015°25'0 0.0
2017-Feb-17 16:30N 28°09' W 015°25'0 0.0
2017-Feb-17 15:30N 28°09' W 015°25'0 0.0
2017-Feb-17 14:30N 28°09' W 015°25'0 0.0
2017-Feb-17 13:33N 28°09' W 015°25'0 0.0
2017-Feb-17 12:33N 28°09' W 015°25'0 0.0
2017-Feb-17 11:33N 28°09' W 015°25'0 0.0
2017-Feb-17 10:33N 28°09' W 015°25'0 0.0
2017-Feb-17 09:33N 28°09' W 015°25'0 0.0
2017-Feb-17 08:24N 28°09' W 015°25'0 0.0
2017-Feb-17 07:33N 28°09' W 015°25'0 0.0
2017-Feb-17 06:24N 28°09' W 015°25'0 0.0
2017-Feb-17 05:27N 28°09' W 015°25'0 0.0
2017-Feb-17 04:27N 28°09' W 015°25'0 0.0
2017-Feb-17 03:27N 28°09' W 015°25'0 0.0
2017-Feb-17 02:30N 28°09' W 015°25'0 0.0
2017-Feb-17 01:30N 28°09' W 015°25'0 0.0
2017-Feb-17 00:30N 28°09' W 015°25'0 0.0
2017-Feb-16 23:33N 28°09' W 015°25'0 0.0
2017-Feb-16 22:30N 28°09' W 015°25'0 0.0
2017-Feb-16 21:33N 28°09' W 015°25'0 0.0
2017-Feb-16 20:33N 28°09' W 015°25'0 0.0
2017-Feb-16 19:21N 28°09' W 015°25'0 0.0
2017-Feb-16 18:33N 28°09' W 015°25'0 0.0
2017-Feb-16 17:33N 28°09' W 015°25'2 1.9
2017-Feb-16 16:33N 28°07' W 015°25'5 5.3
2017-Feb-16 15:33N 28°03' W 015°21'9 8.8
2017-Feb-16 14:33N 27°55' W 015°16'9 9.0
2017-Feb-16 13:32N 27°46' W 015°17'  
Track history (hours):
 
Tides and Currents Weather Stations Pressure Air Temp Water Temp Dewpoint Dewpoint Depression Visibility Wind Speed Wind Dir Waves Ship Positions

Ocean Fresh

Last reported at 2017-Feb-18 01:27 UTC. Time now 2017-Feb-24 21:49 UTC.
Position N 27°39' W 015°19'.

; draft 7.5 m.

Type: Other ship. MMSI: 259758000.

Date/timePositionNaut miles runAvg speedWind from/ knotsBaromVisibWave heightAir tempDewpointWater temp
2017-Feb-18 01:27N 27°39' W 015°19'910.0
2017-Feb-18 00:33N 27°47' W 015°17'10 9.5
2017-Feb-17 23:33N 27°57' W 015°17'9 9.4
2017-Feb-17 22:33N 28°05' W 015°22'4 4.4
2017-Feb-17 21:34N 28°09' W 015°25'0 0.0
2017-Feb-17 20:06N 28°09' W 015°25'0 0.0
2017-Feb-17 19:27N 28°09' W 015°25'0 0.0
2017-Feb-17 18:27N 28°09' W 015°25'0 0.0
2017-Feb-17 17:27N 28°09' W 015°25'0 0.0
2017-Feb-17 16:30N 28°09' W 015°25'0 0.0
2017-Feb-17 15:30N 28°09' W 015°25'0 0.0
2017-Feb-17 14:30N 28°09' W 015°25'0 0.0
2017-Feb-17 13:33N 28°09' W 015°25'0 0.0
2017-Feb-17 12:33N 28°09' W 015°25'0 0.0
2017-Feb-17 11:33N 28°09' W 015°25'0 0.0
2017-Feb-17 10:33N 28°09' W 015°25'0 0.0
2017-Feb-17 09:33N 28°09' W 015°25'0 0.0
2017-Feb-17 08:24N 28°09' W 015°25'0 0.0
2017-Feb-17 07:33N 28°09' W 015°25'0 0.0
2017-Feb-17 06:24N 28°09' W 015°25'0 0.0
2017-Feb-17 05:27N 28°09' W 015°25'0 0.0
2017-Feb-17 04:27N 28°09' W 015°25'0 0.0
2017-Feb-17 03:27N 28°09' W 015°25'0 0.0
2017-Feb-17 02:30N 28°09' W 015°25'0 0.0
2017-Feb-17 01:30N 28°09' W 015°25'0 0.0
2017-Feb-17 00:30N 28°09' W 015°25'0 0.0
2017-Feb-16 23:33N 28°09' W 015°25'0 0.0
2017-Feb-16 22:30N 28°09' W 015°25'0 0.0
2017-Feb-16 21:33N 28°09' W 015°25'0 0.0
2017-Feb-16 20:33N 28°09' W 015°25'0 0.0
2017-Feb-16 19:21N 28°09' W 015°25'0 0.0
2017-Feb-16 18:33N 28°09' W 015°25'0 0.0
2017-Feb-16 17:33N 28°09' W 015°25'2 1.9
2017-Feb-16 16:33N 28°07' W 015°25'5 5.3
2017-Feb-16 15:33N 28°03' W 015°21'9 8.8
2017-Feb-16 14:33N 27°55' W 015°16'9 9.0
2017-Feb-16 13:32N 27°46' W 015°17'  

Dump ship's entire track history